sensor_id;sensor_type;location;lat;lon;timestamp;pressure;altitude;pressure_sealevel;temperature;humidity
78741;BME280;68062;48.726;9.370;2023-02-26T00:01:38;98241.75;;;1.11;74.69
78741;BME280;68062;48.726;9.370;2023-02-26T00:04:07;98215.03;;;0.91;74.60
78741;BME280;68062;48.726;9.370;2023-02-26T00:06:35;98233.69;;;1.25;75.16
78741;BME280;68062;48.726;9.370;2023-02-26T00:09:03;98236.44;;;1.02;75.38
78741;BME280;68062;48.726;9.370;2023-02-26T00:11:30;98236.31;;;1.29;75.25
78741;BME280;68062;48.726;9.370;2023-02-26T00:13:57;98238.63;;;1.54;74.03
78741;BME280;68062;48.726;9.370;2023-02-26T00:16:27;98240.22;;;1.16;74.74
78741;BME280;68062;48.726;9.370;2023-02-26T00:18:55;98241.97;;;1.19;75.07
78741;BME280;68062;48.726;9.370;2023-02-26T00:21:24;98237.75;;;1.20;75.43
78741;BME280;68062;48.726;9.370;2023-02-26T00:23:51;98247.34;;;1.30;74.04
78741;BME280;68062;48.726;9.370;2023-02-26T00:26:17;98237.72;;;1.18;73.81
78741;BME280;68062;48.726;9.370;2023-02-26T00:28:44;98248.81;;;1.22;73.73
78741;BME280;68062;48.726;9.370;2023-02-26T00:31:13;98248.75;;;1.20;74.07
78741;BME280;68062;48.726;9.370;2023-02-26T00:33:41;98247.34;;;1.30;73.73
78741;BME280;68062;48.726;9.370;2023-02-26T00:36:18;98250.88;;;1.37;74.14
78741;BME280;68062;48.726;9.370;2023-02-26T00:38:52;98251.69;;;1.36;73.59
78741;BME280;68062;48.726;9.370;2023-02-26T00:41:22;98260.25;;;0.78;75.45
78741;BME280;68062;48.726;9.370;2023-02-26T00:43:49;98258.84;;;0.04;76.95
78741;BME280;68062;48.726;9.370;2023-02-26T00:46:20;98259.47;;;-0.03;77.74
78741;BME280;68062;48.726;9.370;2023-02-26T00:48:55;98266.91;;;0.20;77.73
78741;BME280;68062;48.726;9.370;2023-02-26T00:51:30;98270.59;;;0.29;76.54
78741;BME280;68062;48.726;9.370;2023-02-26T00:54:03;98268.47;;;0.42;76.61
78741;BME280;68062;48.726;9.370;2023-02-26T00:56:33;98255.75;;;0.98;75.32
78741;BME280;68062;48.726;9.370;2023-02-26T00:58:59;98269.03;;;0.91;73.95
78741;BME280;68062;48.726;9.370;2023-02-26T01:01:26;98266.16;;;-0.05;75.98
78741;BME280;68062;48.726;9.370;2023-02-26T01:03:53;98267.19;;;0.29;74.92
78741;BME280;68062;48.726;9.370;2023-02-26T01:06:20;98264.88;;;0.08;75.50
78741;BME280;68062;48.726;9.370;2023-02-26T01:08:54;98264.28;;;0.17;75.08
78741;BME280;68062;48.726;9.370;2023-02-26T01:11:24;98263.50;;;0.45;74.95
78741;BME280;68062;48.726;9.370;2023-02-26T01:13:50;98261.22;;;0.25;75.56
78741;BME280;68062;48.726;9.370;2023-02-26T01:16:20;98262.97;;;0.01;75.62
78741;BME280;68062;48.726;9.370;2023-02-26T01:18:53;98253.94;;;-0.19;76.35
78741;BME280;68062;48.726;9.370;2023-02-26T01:21:26;98255.78;;;0.14;74.68
78741;BME280;68062;48.726;9.370;2023-02-26T01:23:55;98254.22;;;0.18;75.20
78741;BME280;68062;48.726;9.370;2023-02-26T01:26:23;98250.28;;;0.26;75.34
78741;BME280;68062;48.726;9.370;2023-02-26T01:28:57;98252.94;;;0.04;75.45
78741;BME280;68062;48.726;9.370;2023-02-26T01:31:33;98243.97;;;-0.14;75.42
78741;BME280;68062;48.726;9.370;2023-02-26T01:34:05;98251.03;;;-0.04;75.45
78741;BME280;68062;48.726;9.370;2023-02-26T01:36:39;98253.13;;;0.66;74.55
78741;BME280;68062;48.726;9.370;2023-02-26T01:39:16;98259.66;;;0.03;74.66
78741;BME280;68062;48.726;9.370;2023-02-26T01:41:46;98255.03;;;-0.36;76.50
78741;BME280;68062;48.726;9.370;2023-02-26T01:44:20;98258.09;;;-0.19;76.71
78741;BME280;68062;48.726;9.370;2023-02-26T01:47:03;98262.78;;;0.49;73.32
78741;BME280;68062;48.726;9.370;2023-02-26T01:49:36;98263.13;;;0.62;72.95
78741;BME280;68062;48.726;9.370;2023-02-26T01:52:04;98271.13;;;0.47;73.43
78741;BME280;68062;48.726;9.370;2023-02-26T01:54:34;98261.88;;;0.47;73.24
78741;BME280;68062;48.726;9.370;2023-02-26T01:57:03;98259.47;;;0.52;73.55
78741;BME280;68062;48.726;9.370;2023-02-26T01:59:31;98264.03;;;0.64;72.78
78741;BME280;68062;48.726;9.370;2023-02-26T02:02:01;98273.16;;;0.58;74.25
78741;BME280;68062;48.726;9.370;2023-02-26T02:04:29;98273.00;;;0.52;73.49
78741;BME280;68062;48.726;9.370;2023-02-26T02:06:59;98277.19;;;0.81;72.63
78741;BME280;68062;48.726;9.370;2023-02-26T02:09:25;98277.31;;;0.56;74.11
78741;BME280;68062;48.726;9.370;2023-02-26T02:12:05;98279.88;;;0.03;76.77
78741;BME280;68062;48.726;9.370;2023-02-26T02:14:42;98279.34;;;-0.14;77.38
78741;BME280;68062;48.726;9.370;2023-02-26T02:17:13;98287.13;;;-0.08;77.49
78741;BME280;68062;48.726;9.370;2023-02-26T02:19:54;98288.94;;;-0.04;76.98
78741;BME280;68062;48.726;9.370;2023-02-26T02:22:34;98279.94;;;-0.21;77.97
78741;BME280;68062;48.726;9.370;2023-02-26T02:25:15;98273.78;;;-0.04;76.88
78741;BME280;68062;48.726;9.370;2023-02-26T02:27:53;98282.47;;;0.32;76.52
78741;BME280;68062;48.726;9.370;2023-02-26T02:30:34;98292.28;;;-0.31;78.03
78741;BME280;68062;48.726;9.370;2023-02-26T02:33:09;98277.97;;;-0.56;77.22
78741;BME280;68062;48.726;9.370;2023-02-26T02:35:40;98287.81;;;-0.38;76.67
78741;BME280;68062;48.726;9.370;2023-02-26T02:38:10;98293.19;;;-0.03;75.41
78741;BME280;68062;48.726;9.370;2023-02-26T02:40:43;98291.34;;;-0.08;75.79
78741;BME280;68062;48.726;9.370;2023-02-26T02:43:14;98298.00;;;-0.36;77.04
78741;BME280;68062;48.726;9.370;2023-02-26T02:45:42;98294.41;;;-0.17;75.67
78741;BME280;68062;48.726;9.370;2023-02-26T02:48:15;98298.03;;;-0.35;77.11
78741;BME280;68062;48.726;9.370;2023-02-26T02:50:45;98307.66;;;0.02;75.89
78741;BME280;68062;48.726;9.370;2023-02-26T02:53:18;98294.66;;;-0.35;75.98
78741;BME280;68062;48.726;9.370;2023-02-26T02:55:52;98307.19;;;-0.63;77.38
78741;BME280;68062;48.726;9.370;2023-02-26T02:58:22;98304.50;;;-0.43;76.87
78741;BME280;68062;48.726;9.370;2023-02-26T03:00:53;98298.25;;;-0.28;76.25
78741;BME280;68062;48.726;9.370;2023-02-26T03:03:25;98308.75;;;-0.16;75.79
78741;BME280;68062;48.726;9.370;2023-02-26T03:05:54;98309.88;;;-0.08;76.08
78741;BME280;68062;48.726;9.370;2023-02-26T03:08:23;98309.47;;;-0.20;75.43
78741;BME280;68062;48.726;9.370;2023-02-26T03:10:51;98310.84;;;-0.30;75.73
78741;BME280;68062;48.726;9.370;2023-02-26T03:13:20;98311.44;;;-0.37;76.31
78741;BME280;68062;48.726;9.370;2023-02-26T03:15:55;98312.16;;;-0.16;75.56
78741;BME280;68062;48.726;9.370;2023-02-26T03:18:33;98315.78;;;0.19;74.58
78741;BME280;68062;48.726;9.370;2023-02-26T03:21:07;98319.00;;;-0.37;74.98
78741;BME280;68062;48.726;9.370;2023-02-26T03:23:40;98319.97;;;-0.09;74.97
78741;BME280;68062;48.726;9.370;2023-02-26T03:26:11;98324.25;;;-0.07;74.85
78741;BME280;68062;48.726;9.370;2023-02-26T03:28:42;98330.41;;;-0.24;75.40
78741;BME280;68062;48.726;9.370;2023-02-26T03:31:14;98330.88;;;-0.10;75.19
78741;BME280;68062;48.726;9.370;2023-02-26T03:33:53;98333.00;;;-0.23;75.12
78741;BME280;68062;48.726;9.370;2023-02-26T03:36:25;98325.81;;;-0.10;74.57
78741;BME280;68062;48.726;9.370;2023-02-26T03:38:57;98331.38;;;-0.21;75.19
78741;BME280;68062;48.726;9.370;2023-02-26T03:41:33;98334.16;;;-0.62;76.05
78741;BME280;68062;48.726;9.370;2023-02-26T03:44:05;98334.88;;;-1.11;77.52
78741;BME280;68062;48.726;9.370;2023-02-26T03:46:36;98342.63;;;-1.07;78.16
78741;BME280;68062;48.726;9.370;2023-02-26T03:49:09;98334.66;;;-1.17;78.72
78741;BME280;68062;48.726;9.370;2023-02-26T03:51:37;98336.13;;;-0.77;77.58
78741;BME280;68062;48.726;9.370;2023-02-26T03:54:08;98337.44;;;-0.64;76.48
78741;BME280;68062;48.726;9.370;2023-02-26T03:56:39;98342.53;;;-0.63;75.63
78741;BME280;68062;48.726;9.370;2023-02-26T03:59:07;98340.03;;;-0.85;75.57
78741;BME280;68062;48.726;9.370;2023-02-26T04:01:38;98336.25;;;-0.97;75.91
78741;BME280;68062;48.726;9.370;2023-02-26T04:04:11;98344.28;;;-0.84;75.65
78741;BME280;68062;48.726;9.370;2023-02-26T04:06:39;98348.59;;;-0.82;75.77
78741;BME280;68062;48.726;9.370;2023-02-26T04:09:06;98345.88;;;-0.86;75.52
78741;BME280;68062;48.726;9.370;2023-02-26T04:11:32;98352.06;;;-0.55;74.82
78741;BME280;68062;48.726;9.370;2023-02-26T04:14:00;98351.16;;;-0.80;75.11
78741;BME280;68062;48.726;9.370;2023-02-26T04:16:27;98360.41;;;-0.81;75.14
78741;BME280;68062;48.726;9.370;2023-02-26T04:18:53;98361.69;;;-1.15;75.88
78741;BME280;68062;48.726;9.370;2023-02-26T04:21:21;98363.19;;;-0.97;76.09
78741;BME280;68062;48.726;9.370;2023-02-26T04:23:48;98368.25;;;-1.19;77.21
78741;BME280;68062;48.726;9.370;2023-02-26T04:26:14;98357.31;;;-0.73;76.01
78741;BME280;68062;48.726;9.370;2023-02-26T04:28:41;98357.66;;;-0.64;74.94
78741;BME280;68062;48.726;9.370;2023-02-26T04:31:08;98363.78;;;-0.09;72.35
78741;BME280;68062;48.726;9.370;2023-02-26T04:33:35;98366.06;;;0.09;72.09
78741;BME280;68062;48.726;9.370;2023-02-26T04:36:02;98362.91;;;0.17;71.61
78741;BME280;68062;48.726;9.370;2023-02-26T04:38:31;98369.91;;;0.24;71.85
78741;BME280;68062;48.726;9.370;2023-02-26T04:40:57;98358.66;;;0.16;71.57
78741;BME280;68062;48.726;9.370;2023-02-26T04:43:24;98379.19;;;0.23;72.05
78741;BME280;68062;48.726;9.370;2023-02-26T04:45:53;98370.78;;;0.24;71.20
78741;BME280;68062;48.726;9.370;2023-02-26T04:48:19;98369.25;;;0.04;71.50
78741;BME280;68062;48.726;9.370;2023-02-26T04:50:46;98374.09;;;-0.03;71.60
78741;BME280;68062;48.726;9.370;2023-02-26T04:53:12;98383.72;;;0.08;71.38
78741;BME280;68062;48.726;9.370;2023-02-26T04:55:40;98343.31;;;-0.17;71.69
78741;BME280;68062;48.726;9.370;2023-02-26T04:58:07;98379.59;;;-0.63;72.52
78741;BME280;68062;48.726;9.370;2023-02-26T05:00:34;98383.66;;;-0.20;72.03
78741;BME280;68062;48.726;9.370;2023-02-26T05:03:01;98386.59;;;-0.07;71.40
78741;BME280;68062;48.726;9.370;2023-02-26T05:05:27;98394.41;;;-0.01;71.96
78741;BME280;68062;48.726;9.370;2023-02-26T05:07:54;98392.63;;;-0.28;72.67
78741;BME280;68062;48.726;9.370;2023-02-26T05:10:21;98391.31;;;-0.41;72.95
78741;BME280;68062;48.726;9.370;2023-02-26T05:12:49;98394.38;;;-0.25;71.97
78741;BME280;68062;48.726;9.370;2023-02-26T05:15:16;98388.00;;;-0.16;71.45
78741;BME280;68062;48.726;9.370;2023-02-26T05:17:42;98399.88;;;-0.13;71.58
78741;BME280;68062;48.726;9.370;2023-02-26T05:20:10;98382.78;;;-0.20;71.98
78741;BME280;68062;48.726;9.370;2023-02-26T05:22:36;98406.59;;;-0.13;71.16
78741;BME280;68062;48.726;9.370;2023-02-26T05:25:04;98410.34;;;-0.26;71.84
78741;BME280;68062;48.726;9.370;2023-02-26T05:27:31;98401.53;;;-0.38;71.62
78741;BME280;68062;48.726;9.370;2023-02-26T05:29:59;98415.16;;;-0.34;71.80
78741;BME280;68062;48.726;9.370;2023-02-26T05:32:26;98414.06;;;-0.41;71.79
78741;BME280;68062;48.726;9.370;2023-02-26T05:34:52;98414.81;;;-0.43;71.85
78741;BME280;68062;48.726;9.370;2023-02-26T05:37:19;98423.66;;;-0.32;71.88
78741;BME280;68062;48.726;9.370;2023-02-26T05:39:45;98426.31;;;-0.27;71.02
78741;BME280;68062;48.726;9.370;2023-02-26T05:42:12;98429.50;;;-0.33;71.58
78741;BME280;68062;48.726;9.370;2023-02-26T05:44:38;98433.78;;;-0.31;70.87
78741;BME280;68062;48.726;9.370;2023-02-26T05:47:06;98439.72;;;-0.30;71.18
78741;BME280;68062;48.726;9.370;2023-02-26T05:49:32;98444.03;;;-0.50;71.91
78741;BME280;68062;48.726;9.370;2023-02-26T05:51:59;98444.25;;;-0.44;71.65
78741;BME280;68062;48.726;9.370;2023-02-26T05:54:26;98453.75;;;-0.38;71.71
78741;BME280;68062;48.726;9.370;2023-02-26T05:56:52;98442.72;;;-0.40;71.28
78741;BME280;68062;48.726;9.370;2023-02-26T05:59:20;98458.34;;;-0.51;71.51
78741;BME280;68062;48.726;9.370;2023-02-26T06:01:46;98464.84;;;-1.01;73.44
78741;BME280;68062;48.726;9.370;2023-02-26T06:04:14;98464.34;;;-1.14;74.70
78741;BME280;68062;48.726;9.370;2023-02-26T06:06:41;98467.91;;;-1.71;76.91
78741;BME280;68062;48.726;9.370;2023-02-26T06:09:07;98476.97;;;-1.96;77.93
78741;BME280;68062;48.726;9.370;2023-02-26T06:11:34;98470.53;;;-2.09;79.41
78741;BME280;68062;48.726;9.370;2023-02-26T06:14:02;98446.94;;;-2.11;78.67
78741;BME280;68062;48.726;9.370;2023-02-26T06:16:29;98478.09;;;-2.09;79.60
78741;BME280;68062;48.726;9.370;2023-02-26T06:18:55;98481.88;;;-1.99;79.40
78741;BME280;68062;48.726;9.370;2023-02-26T06:21:24;98486.84;;;-2.20;80.00
78741;BME280;68062;48.726;9.370;2023-02-26T06:23:50;98494.94;;;-2.08;79.63
78741;BME280;68062;48.726;9.370;2023-02-26T06:26:17;98489.38;;;-2.00;79.56
78741;BME280;68062;48.726;9.370;2023-02-26T06:28:43;98499.38;;;-2.02;79.32
78741;BME280;68062;48.726;9.370;2023-02-26T06:31:10;98505.03;;;-1.88;79.68
78741;BME280;68062;48.726;9.370;2023-02-26T06:33:36;98504.50;;;-1.81;79.50
78741;BME280;68062;48.726;9.370;2023-02-26T06:36:03;98500.50;;;-1.56;78.21
78741;BME280;68062;48.726;9.370;2023-02-26T06:38:31;98515.97;;;-1.27;76.86
78741;BME280;68062;48.726;9.370;2023-02-26T06:40:58;98508.69;;;-0.99;75.66
78741;BME280;68062;48.726;9.370;2023-02-26T06:43:25;98515.63;;;-1.15;76.12
78741;BME280;68062;48.726;9.370;2023-02-26T06:45:52;98526.16;;;-1.04;75.45
78741;BME280;68062;48.726;9.370;2023-02-26T06:48:18;98521.59;;;-1.13;76.28
78741;BME280;68062;48.726;9.370;2023-02-26T06:50:45;98532.69;;;-0.88;75.57
78741;BME280;68062;48.726;9.370;2023-02-26T06:53:12;98522.13;;;-1.41;77.01
78741;BME280;68062;48.726;9.370;2023-02-26T06:55:43;98516.69;;;-1.10;76.93
78741;BME280;68062;48.726;9.370;2023-02-26T06:58:10;98537.66;;;-0.90;76.23
78741;BME280;68062;48.726;9.370;2023-02-26T07:00:37;98542.38;;;-1.40;77.13
78741;BME280;68062;48.726;9.370;2023-02-26T07:03:05;98520.47;;;-1.60;78.40
78741;BME280;68062;48.726;9.370;2023-02-26T07:05:32;98544.19;;;-1.16;77.48
78741;BME280;68062;48.726;9.370;2023-02-26T07:07:58;98549.50;;;-1.10;76.32
78741;BME280;68062;48.726;9.370;2023-02-26T07:10:25;98553.78;;;-1.28;76.56
78741;BME280;68062;48.726;9.370;2023-02-26T07:12:53;98549.00;;;-1.01;75.96
78741;BME280;68062;48.726;9.370;2023-02-26T07:15:19;98556.03;;;-1.35;77.02
78741;BME280;68062;48.726;9.370;2023-02-26T07:17:46;98545.63;;;-1.01;77.02
78741;BME280;68062;48.726;9.370;2023-02-26T07:20:12;98545.38;;;-1.08;76.99
78741;BME280;68062;48.726;9.370;2023-02-26T07:22:39;98535.66;;;-0.98;76.87
78741;BME280;68062;48.726;9.370;2023-02-26T07:25:06;98539.13;;;-0.95;75.20
78741;BME280;68062;48.726;9.370;2023-02-26T07:27:32;98557.84;;;-0.90;75.76
78741;BME280;68062;48.726;9.370;2023-02-26T07:30:01;98556.94;;;-0.26;74.26
78741;BME280;68062;48.726;9.370;2023-02-26T07:32:27;98561.97;;;-0.05;71.85
78741;BME280;68062;48.726;9.370;2023-02-26T07:34:54;98570.31;;;-0.73;74.14
78741;BME280;68062;48.726;9.370;2023-02-26T07:37:20;98565.75;;;-0.82;74.71
78741;BME280;68062;48.726;9.370;2023-02-26T07:39:48;98570.44;;;-0.70;74.58
78741;BME280;68062;48.726;9.370;2023-02-26T07:42:14;98568.41;;;-0.79;74.41
78741;BME280;68062;48.726;9.370;2023-02-26T07:44:41;98566.59;;;-0.81;75.55
78741;BME280;68062;48.726;9.370;2023-02-26T07:47:09;98575.84;;;-0.39;73.87
78741;BME280;68062;48.726;9.370;2023-02-26T07:49:35;98573.44;;;-0.36;74.45
78741;BME280;68062;48.726;9.370;2023-02-26T07:52:02;98572.13;;;-0.04;74.03
78741;BME280;68062;48.726;9.370;2023-02-26T07:54:31;98580.91;;;0.06;73.44
78741;BME280;68062;48.726;9.370;2023-02-26T07:56:57;98581.50;;;-0.45;74.85
78741;BME280;68062;48.726;9.370;2023-02-26T07:59:24;98572.47;;;-0.61;76.34
78741;BME280;68062;48.726;9.370;2023-02-26T08:01:50;98581.88;;;-0.13;75.33
78741;BME280;68062;48.726;9.370;2023-02-26T08:04:18;98577.25;;;-0.46;74.84
78741;BME280;68062;48.726;9.370;2023-02-26T08:06:44;98584.47;;;-0.98;78.03
78741;BME280;68062;48.726;9.370;2023-02-26T08:09:11;98573.63;;;-0.53;77.08
78741;BME280;68062;48.726;9.370;2023-02-26T08:11:37;98580.53;;;-0.49;77.08
78741;BME280;68062;48.726;9.370;2023-02-26T08:14:08;98580.91;;;-0.61;76.52
78741;BME280;68062;48.726;9.370;2023-02-26T08:16:37;98580.34;;;-0.75;77.20
78741;BME280;68062;48.726;9.370;2023-02-26T08:19:04;98579.34;;;-0.78;76.80
78741;BME280;68062;48.726;9.370;2023-02-26T08:21:32;98586.25;;;-0.74;77.99
78741;BME280;68062;48.726;9.370;2023-02-26T08:23:58;98587.69;;;0.07;75.68
78741;BME280;68062;48.726;9.370;2023-02-26T08:26:25;98572.22;;;0.22;74.83
78741;BME280;68062;48.726;9.370;2023-02-26T08:28:52;98585.41;;;0.38;73.43
78741;BME280;68062;48.726;9.370;2023-02-26T08:31:18;98588.31;;;0.02;73.46
78741;BME280;68062;48.726;9.370;2023-02-26T08:33:45;98593.13;;;-0.71;76.30
78741;BME280;68062;48.726;9.370;2023-02-26T08:36:12;98596.75;;;-0.43;75.33
78741;BME280;68062;48.726;9.370;2023-02-26T08:38:40;98596.22;;;-0.35;75.02
78741;BME280;68062;48.726;9.370;2023-02-26T08:41:06;98585.22;;;0.09;74.34
78741;BME280;68062;48.726;9.370;2023-02-26T08:43:33;98596.78;;;-0.42;75.76
78741;BME280;68062;48.726;9.370;2023-02-26T08:46:00;98614.38;;;-0.66;76.81
78741;BME280;68062;48.726;9.370;2023-02-26T08:48:27;98583.91;;;-1.12;78.02
78741;BME280;68062;48.726;9.370;2023-02-26T08:50:53;98618.31;;;-0.52;77.75
78741;BME280;68062;48.726;9.370;2023-02-26T08:53:20;98617.38;;;-0.33;76.05
78741;BME280;68062;48.726;9.370;2023-02-26T08:55:49;98618.47;;;0.20;74.94
78741;BME280;68062;48.726;9.370;2023-02-26T08:58:16;98620.56;;;-0.16;75.44
78741;BME280;68062;48.726;9.370;2023-02-26T09:00:44;98620.16;;;0.19;75.69
78741;BME280;68062;48.726;9.370;2023-02-26T09:03:11;98618.28;;;0.61;73.58
78741;BME280;68062;48.726;9.370;2023-02-26T09:05:37;98609.75;;;0.83;72.57
78741;BME280;68062;48.726;9.370;2023-02-26T09:08:05;98619.13;;;0.61;72.06
78741;BME280;68062;48.726;9.370;2023-02-26T09:10:31;98619.13;;;0.37;74.13
78741;BME280;68062;48.726;9.370;2023-02-26T09:13:01;98614.38;;;0.46;73.24
78741;BME280;68062;48.726;9.370;2023-02-26T09:15:27;98630.88;;;0.59;72.98
78741;BME280;68062;48.726;9.370;2023-02-26T09:17:54;98631.47;;;0.29;72.78
78741;BME280;68062;48.726;9.370;2023-02-26T09:20:21;98632.84;;;0.92;72.21
78741;BME280;68062;48.726;9.370;2023-02-26T09:22:48;98647.72;;;-0.10;74.46
78741;BME280;68062;48.726;9.370;2023-02-26T09:25:15;98643.63;;;0.15;73.80
78741;BME280;68062;48.726;9.370;2023-02-26T09:27:41;98641.66;;;0.78;72.97
78741;BME280;68062;48.726;9.370;2023-02-26T09:30:11;98636.97;;;0.88;72.65
78741;BME280;68062;48.726;9.370;2023-02-26T09:32:39;98630.16;;;0.39;72.89
78741;BME280;68062;48.726;9.370;2023-02-26T09:35:08;98653.94;;;0.67;72.70
78741;BME280;68062;48.726;9.370;2023-02-26T09:37:38;98631.13;;;0.20;73.36
78741;BME280;68062;48.726;9.370;2023-02-26T09:40:06;98652.78;;;0.58;72.73
78741;BME280;68062;48.726;9.370;2023-02-26T09:42:52;98644.00;;;0.49;72.25
78741;BME280;68062;48.726;9.370;2023-02-26T09:45:30;98657.31;;;0.67;71.49
78741;BME280;68062;48.726;9.370;2023-02-26T09:48:00;98647.41;;;0.98;71.56
78741;BME280;68062;48.726;9.370;2023-02-26T09:50:37;98655.91;;;1.50;69.76
78741;BME280;68062;48.726;9.370;2023-02-26T09:53:11;98664.22;;;1.46;69.17
78741;BME280;68062;48.726;9.370;2023-02-26T09:55:42;98658.53;;;1.27;69.14
78741;BME280;68062;48.726;9.370;2023-02-26T09:58:16;98652.00;;;0.84;70.15
78741;BME280;68062;48.726;9.370;2023-02-26T10:00:49;98666.69;;;0.94;70.10
78741;BME280;68062;48.726;9.370;2023-02-26T10:03:24;98660.63;;;0.19;71.36
78741;BME280;68062;48.726;9.370;2023-02-26T10:06:08;98674.78;;;0.60;72.63
78741;BME280;68062;48.726;9.370;2023-02-26T10:08:58;98665.41;;;0.81;71.89
78741;BME280;68062;48.726;9.370;2023-02-26T10:11:43;98669.75;;;1.10;70.73
78741;BME280;68062;48.726;9.370;2023-02-26T10:14:15;98668.59;;;1.00;70.82
78741;BME280;68062;48.726;9.370;2023-02-26T10:16:49;98675.66;;;1.35;69.08
78741;BME280;68062;48.726;9.370;2023-02-26T10:19:18;98689.78;;;0.55;71.56
78741;BME280;68062;48.726;9.370;2023-02-26T10:21:49;98685.47;;;0.29;72.79
78741;BME280;68062;48.726;9.370;2023-02-26T10:24:21;98680.41;;;0.29;73.00
78741;BME280;68062;48.726;9.370;2023-02-26T10:26:53;98689.59;;;0.73;72.01
78741;BME280;68062;48.726;9.370;2023-02-26T10:29:26;98682.88;;;0.51;72.80
78741;BME280;68062;48.726;9.370;2023-02-26T10:32:05;98697.56;;;0.37;73.91
78741;BME280;68062;48.726;9.370;2023-02-26T10:34:37;98652.09;;;-0.06;73.40
78741;BME280;68062;48.726;9.370;2023-02-26T10:37:12;98692.03;;;0.03;74.50
78741;BME280;68062;48.726;9.370;2023-02-26T10:39:45;98689.06;;;0.13;75.44
78741;BME280;68062;48.726;9.370;2023-02-26T10:42:20;98676.59;;;-0.05;74.83
78741;BME280;68062;48.726;9.370;2023-02-26T10:44:56;98692.63;;;0.19;74.93
78741;BME280;68062;48.726;9.370;2023-02-26T10:47:33;98700.78;;;0.33;74.88
78741;BME280;68062;48.726;9.370;2023-02-26T10:50:04;98685.94;;;0.19;74.01
78741;BME280;68062;48.726;9.370;2023-02-26T10:52:32;98681.34;;;0.79;72.93
78741;BME280;68062;48.726;9.370;2023-02-26T10:55:06;98675.94;;;0.45;73.20
78741;BME280;68062;48.726;9.370;2023-02-26T10:57:44;98678.63;;;0.97;71.26
78741;BME280;68062;48.726;9.370;2023-02-26T11:00:16;98683.72;;;1.23;71.11
78741;BME280;68062;48.726;9.370;2023-02-26T11:02:47;98691.84;;;1.14;70.73
78741;BME280;68062;48.726;9.370;2023-02-26T11:05:18;98685.25;;;1.17;70.81
78741;BME280;68062;48.726;9.370;2023-02-26T11:07:47;98686.72;;;1.37;71.01
78741;BME280;68062;48.726;9.370;2023-02-26T11:10:18;98679.47;;;1.22;70.01
78741;BME280;68062;48.726;9.370;2023-02-26T11:12:45;98692.19;;;0.99;70.93
78741;BME280;68062;48.726;9.370;2023-02-26T11:15:14;98692.41;;;1.55;70.58
78741;BME280;68062;48.726;9.370;2023-02-26T11:17:40;98692.19;;;1.75;69.19
78741;BME280;68062;48.726;9.370;2023-02-26T11:20:18;98689.13;;;1.85;69.09
78741;BME280;68062;48.726;9.370;2023-02-26T11:22:47;98693.88;;;2.02;68.35
78741;BME280;68062;48.726;9.370;2023-02-26T11:25:17;98698.13;;;2.30;66.98
78741;BME280;68062;48.726;9.370;2023-02-26T11:27:48;98695.47;;;2.55;66.77
78741;BME280;68062;48.726;9.370;2023-02-26T11:30:16;98699.28;;;1.59;68.25
78741;BME280;68062;48.726;9.370;2023-02-26T11:32:45;98690.91;;;1.36;68.78
78741;BME280;68062;48.726;9.370;2023-02-26T11:35:17;98681.19;;;1.49;69.63
78741;BME280;68062;48.726;9.370;2023-02-26T11:37:48;98696.47;;;1.50;68.95
78741;BME280;68062;48.726;9.370;2023-02-26T11:40:18;98685.50;;;1.51;69.14
78741;BME280;68062;48.726;9.370;2023-02-26T11:42:50;98697.06;;;1.43;69.16
78741;BME280;68062;48.726;9.370;2023-02-26T11:45:19;98691.28;;;1.73;68.95
78741;BME280;68062;48.726;9.370;2023-02-26T11:47:47;98686.94;;;1.96;67.96
78741;BME280;68062;48.726;9.370;2023-02-26T11:50:19;98692.81;;;1.42;68.71
78741;BME280;68062;48.726;9.370;2023-02-26T11:52:54;98681.19;;;1.49;69.18
78741;BME280;68062;48.726;9.370;2023-02-26T11:55:26;98688.34;;;1.60;69.89
78741;BME280;68062;48.726;9.370;2023-02-26T11:57:55;98688.53;;;1.41;69.41
78741;BME280;68062;48.726;9.370;2023-02-26T12:00:26;98688.66;;;1.44;71.31
78741;BME280;68062;48.726;9.370;2023-02-26T12:02:58;98691.09;;;1.67;70.32
78741;BME280;68062;48.726;9.370;2023-02-26T12:05:26;98690.50;;;1.50;70.86
78741;BME280;68062;48.726;9.370;2023-02-26T12:07:53;98700.06;;;1.31;71.29
78741;BME280;68062;48.726;9.370;2023-02-26T12:10:23;98704.47;;;0.88;71.21
78741;BME280;68062;48.726;9.370;2023-02-26T12:13:03;98700.81;;;1.04;72.46
78741;BME280;68062;48.726;9.370;2023-02-26T12:15:35;98679.47;;;1.47;70.05
78741;BME280;68062;48.726;9.370;2023-02-26T12:18:20;98695.94;;;1.86;69.13
78741;BME280;68062;48.726;9.370;2023-02-26T12:20:59;98684.72;;;1.80;69.50
78741;BME280;68062;48.726;9.370;2023-02-26T12:23:40;98695.72;;;2.08;67.56
78741;BME280;68062;48.726;9.370;2023-02-26T12:26:21;98692.84;;;2.24;67.02
78741;BME280;68062;48.726;9.370;2023-02-26T12:29:10;98660.56;;;1.91;67.09
78741;BME280;68062;48.726;9.370;2023-02-26T12:31:52;98696.16;;;1.41;67.49
78741;BME280;68062;48.726;9.370;2023-02-26T12:34:41;98699.78;;;1.23;67.89
78741;BME280;68062;48.726;9.370;2023-02-26T12:37:29;98703.13;;;0.98;69.46
78741;BME280;68062;48.726;9.370;2023-02-26T12:40:05;98696.91;;;1.64;68.32
78741;BME280;68062;48.726;9.370;2023-02-26T12:42:44;98694.25;;;2.14;66.77
78741;BME280;68062;48.726;9.370;2023-02-26T12:45:42;98701.44;;;2.00;66.19
78741;BME280;68062;48.726;9.370;2023-02-26T12:48:32;98700.72;;;2.04;66.04
78741;BME280;68062;48.726;9.370;2023-02-26T12:51:09;98691.59;;;2.39;65.37
78741;BME280;68062;48.726;9.370;2023-02-26T12:54:04;98704.28;;;1.84;66.48
78741;BME280;68062;48.726;9.370;2023-02-26T12:56:47;98701.28;;;2.23;66.10
78741;BME280;68062;48.726;9.370;2023-02-26T12:59:24;98680.94;;;2.22;64.76
78741;BME280;68062;48.726;9.370;2023-02-26T13:02:08;98706.75;;;2.08;64.94
78741;BME280;68062;48.726;9.370;2023-02-26T13:05:09;98705.81;;;2.61;64.49
78741;BME280;68062;48.726;9.370;2023-02-26T13:08:11;98701.81;;;2.13;64.78
78741;BME280;68062;48.726;9.370;2023-02-26T13:10:52;98710.66;;;1.98;64.93
78741;BME280;68062;48.726;9.370;2023-02-26T13:13:32;98710.19;;;1.31;67.33
78741;BME280;68062;48.726;9.370;2023-02-26T13:16:12;98705.28;;;1.36;67.94
78741;BME280;68062;48.726;9.370;2023-02-26T13:18:47;98712.06;;;1.63;68.11
78741;BME280;68062;48.726;9.370;2023-02-26T13:21:20;98699.34;;;1.61;66.50
78741;BME280;68062;48.726;9.370;2023-02-26T13:23:50;98693.13;;;1.51;67.42